AAL1067 KLAX-KDFW
Flight info
| Callsign | AAL1067 |
|---|---|
| Flight time | N/A |
| Altitude | 33000 |
| Route | DOTSS2 CNERY BLH J169 TFD J50 SSO J4 INK GEEKY BOOVE7 |
| Aircraft | A321/M-SDE3FGHIRWY/LB1 |
Departure
| Time | 2026-04-26 21:38 |
|---|---|
| Airport | Los Angeles International Airport (KLAX) |
Arrival
| Time | N/A |
|---|---|
| Airport | Dallas Fort Worth International Airport (KDFW) |
| Time | Latitude | Longitude | Altitude | Speed | Heading |
|---|---|---|---|---|---|
| 2026-04-26 20:59 | 33.94102 | -118.40140 | 93 ft | 0 kts | 265° |
| 2026-04-26 21:28 | 33.94103 | -118.40121 | 94 ft | 4 kts | 259° |
| 2026-04-26 21:29 | 33.94112 | -118.40093 | 96 ft | 4 kts | 221° |
| 2026-04-26 21:29 | 33.94135 | -118.40082 | 93 ft | 3 kts | 175° |
| 2026-04-26 21:29 | 33.94143 | -118.40083 | 94 ft | 0 kts | 173° |
| 2026-04-26 21:33 | 33.94137 | -118.40082 | 94 ft | 3 kts | 173° |
| 2026-04-26 21:33 | 33.94069 | -118.40072 | 93 ft | 15 kts | 173° |
| 2026-04-26 21:33 | 33.93964 | -118.40057 | 96 ft | 15 kts | 172° |
| 2026-04-26 21:33 | 33.93910 | -118.40036 | 95 ft | 11 kts | 142° |
| 2026-04-26 21:34 | 33.93887 | -118.39924 | 97 ft | 15 kts | 87° |
| 2026-04-26 21:34 | 33.93900 | -118.39784 | 98 ft | 21 kts | 83° |
| 2026-04-26 21:34 | 33.93920 | -118.39601 | 95 ft | 22 kts | 82° |
| 2026-04-26 21:34 | 33.93940 | -118.39416 | 97 ft | 22 kts | 82° |
| 2026-04-26 21:35 | 33.93958 | -118.39242 | 93 ft | 18 kts | 83° |
| 2026-04-26 21:35 | 33.93974 | -118.39093 | 94 ft | 17 kts | 83° |
| 2026-04-26 21:35 | 33.93988 | -118.38955 | 94 ft | 17 kts | 83° |
| 2026-04-26 21:35 | 33.94000 | -118.38816 | 97 ft | 17 kts | 84° |
| 2026-04-26 21:36 | 33.94014 | -118.38678 | 96 ft | 16 kts | 82° |
| 2026-04-26 21:36 | 33.94028 | -118.38545 | 96 ft | 16 kts | 82° |
| 2026-04-26 21:36 | 33.94043 | -118.38414 | 97 ft | 16 kts | 84° |
| 2026-04-26 21:36 | 33.94055 | -118.38282 | 97 ft | 16 kts | 83° |
| 2026-04-26 21:37 | 33.94070 | -118.38144 | 94 ft | 17 kts | 82° |
| 2026-04-26 21:37 | 33.94067 | -118.38020 | 93 ft | 11 kts | 128° |
| 2026-04-26 21:37 | 33.93996 | -118.38016 | 93 ft | 11 kts | 222° |
| 2026-04-26 21:37 | 33.93967 | -118.38176 | 97 ft | 43 kts | 262° |
| 2026-04-26 21:38 | 33.93905 | -118.38788 | 96 ft | 103 kts | 262° |
| 2026-04-26 21:38 | 33.93796 | -118.39839 | 101 ft | 151 kts | 262° |
| 2026-04-26 21:38 | 33.93658 | -118.41185 | 535 ft | 161 kts | 262° |
| 2026-04-26 21:38 | 33.93537 | -118.42543 | 1238 ft | 164 kts | 262° |
| 2026-04-26 21:39 | 33.93399 | -118.43906 | 1929 ft | 166 kts | 263° |
| 2026-04-26 21:39 | 33.93192 | -118.45331 | 2180 ft | 182 kts | 254° |
| 2026-04-26 21:39 | 33.92537 | -118.46703 | 2326 ft | 201 kts | 227° |
| 2026-04-26 21:39 | 33.91257 | -118.47523 | 2460 ft | 225 kts | 204° |
| 2026-04-26 21:40 | 33.89685 | -118.48064 | 2799 ft | 237 kts | 197° |
| 2026-04-26 21:40 | 33.87995 | -118.48444 | 3128 ft | 254 kts | 194° |
| 2026-04-26 21:40 | 33.86259 | -118.48798 | 3699 ft | 259 kts | 194° |
| 2026-04-26 21:40 | 33.84464 | -118.49149 | 4341 ft | 263 kts | 194° |
| 2026-04-26 21:41 | 33.82653 | -118.49500 | 5028 ft | 265 kts | 193° |
| 2026-04-26 21:41 | 33.80823 | -118.49857 | 5663 ft | 268 kts | 193° |
| 2026-04-26 21:41 | 33.78972 | -118.50221 | 6299 ft | 271 kts | 194° |
| 2026-04-26 21:41 | 33.77104 | -118.50595 | 6884 ft | 274 kts | 194° |
| 2026-04-26 21:42 | 33.75216 | -118.50978 | 7477 ft | 277 kts | 194° |
| 2026-04-26 21:42 | 33.73307 | -118.51352 | 8056 ft | 280 kts | 191° |
| 2026-04-26 21:42 | 33.71334 | -118.51144 | 8623 ft | 294 kts | 165° |
| 2026-04-26 21:42 | 33.69551 | -118.49865 | 9174 ft | 307 kts | 137° |
| 2026-04-26 21:43 | 33.68389 | -118.47686 | 9715 ft | 316 kts | 111° |
| 2026-04-26 21:43 | 33.67641 | -118.45183 | 10193 ft | 323 kts | 110° |
| 2026-04-26 21:43 | 33.66874 | -118.42560 | 10311 ft | 342 kts | 110° |
| 2026-04-26 21:43 | 33.66065 | -118.39795 | 10443 ft | 361 kts | 110° |
| 2026-04-26 21:44 | 33.65213 | -118.36885 | 10573 ft | 378 kts | 110° |
| 2026-04-26 21:44 | 33.64584 | -118.33774 | 10936 ft | 388 kts | 97° |
| 2026-04-26 21:44 | 33.64470 | -118.30523 | 11432 ft | 392 kts | 89° |
| 2026-04-26 21:44 | 33.64480 | -118.27240 | 12024 ft | 395 kts | 89° |
| 2026-04-26 21:45 | 33.64483 | -118.23935 | 12577 ft | 398 kts | 89° |
| 2026-04-26 21:45 | 33.64480 | -118.20603 | 13109 ft | 401 kts | 89° |
| 2026-04-26 21:45 | 33.64478 | -118.17258 | 13635 ft | 404 kts | 89° |
| 2026-04-26 21:45 | 33.64476 | -118.13870 | 14120 ft | 407 kts | 89° |
| 2026-04-26 21:46 | 33.64474 | -118.10471 | 14622 ft | 409 kts | 89° |
| 2026-04-26 21:46 | 33.64471 | -118.07047 | 15126 ft | 411 kts | 89° |
| 2026-04-26 21:46 | 33.64466 | -118.03602 | 15623 ft | 415 kts | 89° |
| 2026-04-26 21:46 | 33.64460 | -118.00128 | 16149 ft | 418 kts | 89° |
| 2026-04-26 21:47 | 33.64455 | -117.96625 | 16725 ft | 421 kts | 89° |
| 2026-04-26 21:47 | 33.64451 | -117.93100 | 17290 ft | 424 kts | 90° |
| 2026-04-26 21:47 | 33.64443 | -117.89542 | 17801 ft | 428 kts | 90° |
| 2026-04-26 21:47 | 33.64434 | -117.85967 | 18300 ft | 429 kts | 90° |
| 2026-04-26 21:48 | 33.64418 | -117.82378 | 18722 ft | 432 kts | 91° |
| 2026-04-26 21:48 | 33.64120 | -117.78786 | 19102 ft | 434 kts | 102° |
| 2026-04-26 21:48 | 33.63367 | -117.75269 | 19481 ft | 436 kts | 108° |
| 2026-04-26 21:48 | 33.62500 | -117.71772 | 19843 ft | 439 kts | 108° |
| 2026-04-26 21:49 | 33.61628 | -117.68241 | 20216 ft | 443 kts | 108° |
| 2026-04-26 21:49 | 33.60752 | -117.64681 | 20576 ft | 446 kts | 108° |
| 2026-04-26 21:49 | 33.59872 | -117.61105 | 20933 ft | 449 kts | 108° |
| 2026-04-26 21:49 | 33.58986 | -117.57502 | 21282 ft | 452 kts | 108° |
| 2026-04-26 21:50 | 33.58093 | -117.53879 | 21627 ft | 455 kts | 108° |
| 2026-04-26 21:50 | 33.57497 | -117.51465 | 21853 ft | 457 kts | 109° |
| 2026-04-26 21:50 | 33.56279 | -117.46560 | 22316 ft | 461 kts | 109° |
| 2026-04-26 21:50 | 33.55360 | -117.42865 | 22599 ft | 465 kts | 109° |
| 2026-04-26 21:51 | 33.54430 | -117.39131 | 22896 ft | 468 kts | 109° |
| 2026-04-26 21:51 | 33.53498 | -117.35385 | 23190 ft | 471 kts | 109° |
| 2026-04-26 21:51 | 33.52557 | -117.31618 | 23504 ft | 473 kts | 110° |
| 2026-04-26 21:51 | 33.51619 | -117.27874 | 23774 ft | 476 kts | 110° |
| 2026-04-26 21:52 | 33.50783 | -117.24020 | 24019 ft | 482 kts | 103° |
| 2026-04-26 21:52 | 33.50422 | -117.20011 | 24243 ft | 487 kts | 92° |
| 2026-04-26 21:52 | 33.50378 | -117.15884 | 24463 ft | 491 kts | 92° |
| 2026-04-26 21:52 | 33.50333 | -117.11780 | 24680 ft | 494 kts | 92° |
| 2026-04-26 21:53 | 33.50281 | -117.07703 | 24908 ft | 497 kts | 92° |
| 2026-04-26 21:53 | 33.50224 | -117.03548 | 25148 ft | 500 kts | 93° |
| 2026-04-26 21:53 | 33.50166 | -116.99368 | 25383 ft | 503 kts | 93° |
| 2026-04-26 21:53 | 33.50105 | -116.95168 | 25613 ft | 506 kts | 93° |
| 2026-04-26 21:54 | 33.50041 | -116.90941 | 25849 ft | 509 kts | 93° |
| 2026-04-26 21:54 | 33.49972 | -116.86694 | 26036 ft | 512 kts | 93° |
| 2026-04-26 21:54 | 33.49903 | -116.82424 | 26291 ft | 514 kts | 93° |
| 2026-04-26 21:54 | 33.49835 | -116.78132 | 26529 ft | 516 kts | 93° |
| 2026-04-26 21:55 | 33.49767 | -116.73827 | 26739 ft | 519 kts | 94° |
| 2026-04-26 21:55 | 33.49698 | -116.69495 | 26949 ft | 521 kts | 94° |
| 2026-04-26 21:55 | 33.49628 | -116.65139 | 27146 ft | 524 kts | 94° |
| 2026-04-26 21:55 | 33.49557 | -116.60769 | 27327 ft | 527 kts | 94° |
| 2026-04-26 21:56 | 33.49482 | -116.56369 | 27493 ft | 530 kts | 94° |
| 2026-04-26 21:56 | 33.49403 | -116.51949 | 27626 ft | 533 kts | 94° |
| 2026-04-26 21:56 | 33.49320 | -116.47502 | 27826 ft | 536 kts | 94° |
| 2026-04-26 21:56 | 33.49233 | -116.43032 | 28044 ft | 538 kts | 95° |
| 2026-04-26 21:57 | 33.49149 | -116.38532 | 28254 ft | 541 kts | 94° |
| 2026-04-26 21:57 | 33.49080 | -116.34014 | 28511 ft | 543 kts | 94° |
| 2026-04-26 21:57 | 33.49017 | -116.29491 | 28788 ft | 543 kts | 94° |
| 2026-04-26 21:57 | 33.48955 | -116.24958 | 29054 ft | 545 kts | 95° |
| 2026-04-26 21:58 | 33.48890 | -116.20412 | 29200 ft | 548 kts | 95° |
| 2026-04-26 21:58 | 33.48819 | -116.15830 | 29339 ft | 552 kts | 95° |
| 2026-04-26 21:58 | 33.48743 | -116.11223 | 29522 ft | 553 kts | 95° |
| 2026-04-26 21:58 | 33.48775 | -116.06611 | 29775 ft | 557 kts | 88° |
| 2026-04-26 21:59 | 33.49298 | -116.01993 | 30015 ft | 561 kts | 79° |
| 2026-04-26 21:59 | 33.50345 | -115.97490 | 30206 ft | 563 kts | 70° |
| 2026-04-26 21:59 | 33.51654 | -115.93068 | 30417 ft | 563 kts | 70° |
| 2026-04-26 21:59 | 33.52961 | -115.88632 | 30623 ft | 565 kts | 70° |
| 2026-04-26 22:00 | 33.54257 | -115.84190 | 30861 ft | 565 kts | 71° |
| 2026-04-26 22:00 | 33.55548 | -115.79742 | 31113 ft | 565 kts | 71° |
| 2026-04-26 22:00 | 33.56837 | -115.75295 | 31357 ft | 565 kts | 71° |
| 2026-04-26 22:00 | 33.58124 | -115.70847 | 31559 ft | 565 kts | 71° |
| 2026-04-26 22:01 | 33.59412 | -115.66396 | 31809 ft | 565 kts | 71° |
| 2026-04-26 22:01 | 33.60676 | -115.61939 | 32038 ft | 564 kts | 75° |
| 2026-04-26 22:01 | 33.61485 | -115.57362 | 32274 ft | 560 kts | 87° |
| 2026-04-26 22:01 | 33.61659 | -115.52725 | 32483 ft | 554 kts | 96° |
| 2026-04-26 22:02 | 33.61584 | -115.48168 | 32691 ft | 554 kts | 96° |
| 2026-04-26 22:02 | 33.61516 | -115.45054 | 32831 ft | 554 kts | 97° |
| 2026-04-26 22:02 | 33.61220 | -115.34327 | 32887 ft | 553 kts | 97° |
| 2026-04-26 22:03 | 33.60964 | -115.25111 | 32895 ft | 553 kts | 97° |
| 2026-04-26 22:03 | 33.60722 | -115.15882 | 32889 ft | 554 kts | 97° |
| 2026-04-26 22:04 | 33.60478 | -115.06649 | 32895 ft | 554 kts | 97° |
| 2026-04-26 22:04 | 33.60225 | -114.97420 | 32863 ft | 554 kts | 97° |
| 2026-04-26 22:05 | 33.59962 | -114.88150 | 32919 ft | 557 kts | 97° |
| 2026-04-26 22:05 | 33.59689 | -114.78860 | 32927 ft | 557 kts | 97° |
| 2026-04-26 22:06 | 33.59240 | -114.69609 | 32927 ft | 554 kts | 102° |
| 2026-04-26 22:06 | 33.58368 | -114.60459 | 32927 ft | 551 kts | 104° |
| 2026-04-26 22:07 | 33.57387 | -114.51344 | 32921 ft | 551 kts | 104° |
| 2026-04-26 22:07 | 33.56654 | -114.43747 | 32915 ft | 552 kts | 103° |
| 2026-04-26 22:08 | 33.55730 | -114.33095 | 32902 ft | 553 kts | 103° |
| 2026-04-26 22:08 | 33.54924 | -114.23930 | 32900 ft | 552 kts | 103° |
| 2026-04-26 22:09 | 33.54069 | -114.14725 | 32902 ft | 552 kts | 103° |
| 2026-04-26 22:09 | 33.53204 | -114.05587 | 32893 ft | 552 kts | 103° |
| 2026-04-26 22:10 | 33.52346 | -113.96517 | 32910 ft | 551 kts | 103° |
| 2026-04-26 22:10 | 33.51481 | -113.87391 | 32927 ft | 551 kts | 103° |
| 2026-04-26 22:11 | 33.50607 | -113.78269 | 32942 ft | 551 kts | 103° |
| 2026-04-26 22:11 | 33.49730 | -113.69138 | 32954 ft | 551 kts | 103° |
| 2026-04-26 22:12 | 33.48843 | -113.60019 | 32958 ft | 551 kts | 104° |
| 2026-04-26 22:12 | 33.47948 | -113.50893 | 32951 ft | 552 kts | 104° |
| 2026-04-26 22:13 | 33.47047 | -113.41769 | 32887 ft | 552 kts | 104° |
| 2026-04-26 22:13 | 33.45444 | -113.32934 | 32842 ft | 533 kts | 120° |
| 2026-04-26 22:14 | 33.42454 | -113.24949 | 32858 ft | 524 kts | 126° |
| 2026-04-26 22:14 | 33.39332 | -113.17061 | 32873 ft | 525 kts | 126° |
| 2026-04-26 22:15 | 33.36209 | -113.09166 | 32848 ft | 525 kts | 126° |
| 2026-04-26 22:15 | 33.33091 | -113.01281 | 32891 ft | 524 kts | 126° |
| 2026-04-26 22:16 | 33.29969 | -112.93414 | 32862 ft | 524 kts | 126° |
| 2026-04-26 22:16 | 33.26840 | -112.85565 | 32896 ft | 523 kts | 126° |
| 2026-04-26 22:17 | 33.23713 | -112.77727 | 32906 ft | 522 kts | 126° |
| 2026-04-26 22:17 | 33.20605 | -112.69948 | 32907 ft | 522 kts | 126° |
| 2026-04-26 22:18 | 33.17475 | -112.62130 | 32908 ft | 522 kts | 126° |
| 2026-04-26 22:18 | 33.14337 | -112.54320 | 32899 ft | 522 kts | 126° |
| 2026-04-26 22:19 | 33.11193 | -112.46526 | 32875 ft | 521 kts | 126° |
| 2026-04-26 22:19 | 33.08053 | -112.38720 | 32864 ft | 522 kts | 126° |
| 2026-04-26 22:20 | 33.05436 | -112.32231 | 32869 ft | 523 kts | 126° |
| 2026-04-26 22:20 | 33.02268 | -112.24434 | 32882 ft | 523 kts | 126° |
| 2026-04-26 22:21 | 32.99092 | -112.16639 | 32894 ft | 523 kts | 126° |
| 2026-04-26 22:21 | 32.95924 | -112.08848 | 32854 ft | 523 kts | 126° |
| 2026-04-26 22:22 | 32.92755 | -112.01054 | 32899 ft | 523 kts | 126° |
| 2026-04-26 22:22 | 32.89582 | -111.93276 | 32927 ft | 523 kts | 124° |
| 2026-04-26 22:23 | 32.88238 | -111.89209 | 32932 ft | 534 kts | 115° |
| 2026-04-26 22:23 | 32.87257 | -111.84927 | 32936 ft | 538 kts | 112° |
| 2026-04-26 22:23 | 32.85355 | -111.76322 | 32941 ft | 538 kts | 112° |
| 2026-04-26 22:24 | 32.83450 | -111.67715 | 32928 ft | 538 kts | 112° |
| 2026-04-26 22:24 | 32.81529 | -111.59117 | 32914 ft | 538 kts | 113° |
| 2026-04-26 22:25 | 32.79593 | -111.50531 | 32864 ft | 538 kts | 112° |
| 2026-04-26 22:25 | 32.77657 | -111.41941 | 32890 ft | 538 kts | 112° |
| 2026-04-26 22:26 | 32.75723 | -111.33352 | 32903 ft | 538 kts | 112° |
| 2026-04-26 22:26 | 32.73783 | -111.24766 | 32905 ft | 538 kts | 112° |
| 2026-04-26 22:27 | 32.71832 | -111.16193 | 32901 ft | 538 kts | 112° |
| 2026-04-26 22:27 | 32.69876 | -111.07620 | 32893 ft | 538 kts | 112° |
| 2026-04-26 22:28 | 32.67926 | -110.99107 | 32880 ft | 538 kts | 112° |
| 2026-04-26 22:28 | 32.65959 | -110.90536 | 32839 ft | 538 kts | 112° |
| 2026-04-26 22:29 | 32.63989 | -110.81975 | 32850 ft | 538 kts | 112° |
| 2026-04-26 22:29 | 32.62005 | -110.73415 | 32844 ft | 538 kts | 112° |
| 2026-04-26 22:30 | 32.60011 | -110.64856 | 32850 ft | 538 kts | 112° |
| 2026-04-26 22:30 | 32.58021 | -110.56302 | 32849 ft | 538 kts | 112° |
| 2026-04-26 22:31 | 32.56029 | -110.47745 | 32855 ft | 539 kts | 112° |
| 2026-04-26 22:31 | 32.54026 | -110.39186 | 32850 ft | 539 kts | 112° |
| 2026-04-26 22:32 | 32.52008 | -110.30632 | 32794 ft | 539 kts | 112° |
| 2026-04-26 22:32 | 32.49998 | -110.22090 | 32847 ft | 538 kts | 112° |
| 2026-04-26 22:33 | 32.46986 | -110.09363 | 32823 ft | 537 kts | 112° |
| 2026-04-26 22:34 | 32.44955 | -110.00863 | 32825 ft | 537 kts | 112° |
| 2026-04-26 22:34 | 32.42916 | -109.92364 | 32817 ft | 537 kts | 112° |
| 2026-04-26 22:35 | 32.40879 | -109.83866 | 32819 ft | 537 kts | 112° |
| 2026-04-26 22:35 | 32.38843 | -109.75362 | 32813 ft | 537 kts | 112° |
| 2026-04-26 22:36 | 32.36802 | -109.66875 | 32765 ft | 536 kts | 112° |
| 2026-04-26 22:36 | 32.34754 | -109.58400 | 32765 ft | 536 kts | 112° |
| 2026-04-26 22:37 | 32.32695 | -109.49931 | 32772 ft | 536 kts | 113° |
| 2026-04-26 22:37 | 32.30631 | -109.41467 | 32768 ft | 536 kts | 112° |
| 2026-04-26 22:38 | 32.28564 | -109.33015 | 32768 ft | 535 kts | 112° |
| 2026-04-26 22:38 | 32.26758 | -109.24453 | 32762 ft | 543 kts | 102° |
| 2026-04-26 22:39 | 32.25917 | -109.15569 | 32764 ft | 544 kts | 101° |
| 2026-04-26 22:39 | 32.25073 | -109.06685 | 32759 ft | 544 kts | 102° |
| 2026-04-26 22:40 | 32.24223 | -108.97809 | 32745 ft | 543 kts | 102° |
| 2026-04-26 22:40 | 32.23363 | -108.88946 | 32701 ft | 543 kts | 101° |
| 2026-04-26 22:41 | 32.22495 | -108.80091 | 32707 ft | 543 kts | 101° |
| 2026-04-26 22:41 | 32.21635 | -108.71301 | 32903 ft | 542 kts | 102° |
| 2026-04-26 22:42 | 32.20759 | -108.62475 | 32890 ft | 541 kts | 102° |
| 2026-04-26 22:42 | 32.19872 | -108.53592 | 32857 ft | 541 kts | 102° |
| 2026-04-26 22:43 | 32.18994 | -108.44830 | 32808 ft | 541 kts | 102° |
| 2026-04-26 22:43 | 32.18106 | -108.36012 | 32743 ft | 541 kts | 102° |
| 2026-04-26 22:44 | 32.17214 | -108.27208 | 32720 ft | 540 kts | 102° |
| 2026-04-26 22:44 | 32.16309 | -108.18411 | 32725 ft | 540 kts | 102° |
| 2026-04-26 22:45 | 32.15404 | -108.09614 | 32720 ft | 540 kts | 102° |
| 2026-04-26 22:45 | 32.14492 | -108.00819 | 32712 ft | 540 kts | 102° |
| 2026-04-26 22:46 | 32.13575 | -107.92024 | 32715 ft | 540 kts | 102° |
| 2026-04-26 22:46 | 32.12649 | -107.83241 | 32703 ft | 540 kts | 102° |
| 2026-04-26 22:46 | 32.12184 | -107.78848 | 32844 ft | 540 kts | 102° |
| 2026-04-26 22:47 | 32.11718 | -107.74456 | 32833 ft | 540 kts | 102° |
| 2026-04-26 22:47 | 32.10781 | -107.65676 | 32833 ft | 539 kts | 102° |
| 2026-04-26 22:48 | 32.09838 | -107.56901 | 32805 ft | 539 kts | 102° |
| 2026-04-26 22:48 | 32.08894 | -107.48139 | 32766 ft | 539 kts | 103° |
| 2026-04-26 22:49 | 32.07941 | -107.39377 | 32700 ft | 538 kts | 103° |
| 2026-04-26 22:49 | 32.06980 | -107.30633 | 33335 ft | 537 kts | 101° |
| 2026-04-26 22:49 | 32.06516 | -107.26380 | 34064 ft | 504 kts | 99° |
| 2026-04-26 22:50 | 32.06083 | -107.22372 | 35033 ft | 483 kts | 99° |
| 2026-04-26 22:50 | 32.05657 | -107.18477 | 35200 ft | 480 kts | 100° |
| 2026-04-26 22:50 | 32.05220 | -107.14577 | 34838 ft | 494 kts | 102° |
| 2026-04-26 22:50 | 32.04754 | -107.10510 | 34467 ft | 506 kts | 103° |
| 2026-04-26 22:51 | 32.04276 | -107.06350 | 33977 ft | 518 kts | 103° |
| 2026-04-26 22:51 | 32.03793 | -107.02113 | 33486 ft | 525 kts | 103° |
| 2026-04-26 22:51 | 32.03312 | -106.97835 | 33110 ft | 527 kts | 103° |
| 2026-04-26 22:51 | 32.02834 | -106.93552 | 32897 ft | 527 kts | 102° |
| 2026-04-26 22:52 | 32.02356 | -106.89265 | 32897 ft | 528 kts | 102° |
| 2026-04-26 22:52 | 32.01388 | -106.80691 | 32870 ft | 528 kts | 102° |
| 2026-04-26 22:53 | 32.00412 | -106.72123 | 32870 ft | 528 kts | 103° |
| 2026-04-26 22:53 | 31.99427 | -106.63559 | 32869 ft | 528 kts | 102° |
| 2026-04-26 22:54 | 31.98432 | -106.54988 | 32870 ft | 528 kts | 102° |
| 2026-04-26 22:54 | 31.97436 | -106.46416 | 32872 ft | 528 kts | 102° |
| 2026-04-26 22:55 | 31.96439 | -106.37840 | 32865 ft | 528 kts | 102° |
| 2026-04-26 22:55 | 31.95432 | -106.29272 | 32865 ft | 528 kts | 102° |